sensor_id;sensor_type;location;lat;lon;timestamp;P1;durP1;ratioP1;P2;durP2;ratioP2
10586;SDS011;5341;47.606;7.576;2023-03-14T00:00:53;7.03;;;4.13;;
10586;SDS011;5341;47.606;7.576;2023-03-14T00:03:21;4.35;;;3.50;;
10586;SDS011;5341;47.606;7.576;2023-03-14T00:05:50;5.60;;;3.70;;
10586;SDS011;5341;47.606;7.576;2023-03-14T00:08:22;4.75;;;3.50;;
10586;SDS011;5341;47.606;7.576;2023-03-14T00:10:50;4.00;;;3.38;;
10586;SDS011;5341;47.606;7.576;2023-03-14T00:13:19;4.13;;;3.45;;
10586;SDS011;5341;47.606;7.576;2023-03-14T00:15:46;4.80;;;3.70;;
10586;SDS011;5341;47.606;7.576;2023-03-14T00:18:14;5.03;;;3.85;;
10586;SDS011;5341;47.606;7.576;2023-03-14T00:20:45;4.10;;;3.55;;
10586;SDS011;5341;47.606;7.576;2023-03-14T00:23:19;4.63;;;3.92;;
10586;SDS011;5341;47.606;7.576;2023-03-14T00:25:46;6.13;;;3.45;;
10586;SDS011;5341;47.606;7.576;2023-03-14T00:28:16;3.80;;;3.33;;
10586;SDS011;5341;47.606;7.576;2023-03-14T00:30:48;3.53;;;3.20;;
10586;SDS011;5341;47.606;7.576;2023-03-14T00:33:15;5.40;;;4.15;;
10586;SDS011;5341;47.606;7.576;2023-03-14T00:36:02;4.60;;;3.58;;
10586;SDS011;5341;47.606;7.576;2023-03-14T00:38:31;5.53;;;3.30;;
10586;SDS011;5341;47.606;7.576;2023-03-14T00:41:01;4.53;;;3.88;;
10586;SDS011;5341;47.606;7.576;2023-03-14T00:43:30;3.90;;;3.40;;
10586;SDS011;5341;47.606;7.576;2023-03-14T00:45:59;4.22;;;3.28;;
10586;SDS011;5341;47.606;7.576;2023-03-14T00:48:26;4.47;;;2.90;;
10586;SDS011;5341;47.606;7.576;2023-03-14T00:50:53;3.22;;;2.90;;
10586;SDS011;5341;47.606;7.576;2023-03-14T00:53:21;3.88;;;2.60;;
10586;SDS011;5341;47.606;7.576;2023-03-14T00:55:48;3.47;;;2.97;;
10586;SDS011;5341;47.606;7.576;2023-03-14T00:58:16;3.67;;;3.05;;
10586;SDS011;5341;47.606;7.576;2023-03-14T01:00:44;3.78;;;2.70;;
10586;SDS011;5341;47.606;7.576;2023-03-14T01:03:14;6.15;;;2.83;;
10586;SDS011;5341;47.606;7.576;2023-03-14T01:05:41;3.63;;;3.08;;
10586;SDS011;5341;47.606;7.576;2023-03-14T01:08:09;3.40;;;2.60;;
10586;SDS011;5341;47.606;7.576;2023-03-14T01:10:37;4.78;;;2.92;;
10586;SDS011;5341;47.606;7.576;2023-03-14T01:13:05;3.40;;;2.40;;
10586;SDS011;5341;47.606;7.576;2023-03-14T01:15:35;2.50;;;2.30;;
10586;SDS011;5341;47.606;7.576;2023-03-14T01:18:03;2.50;;;2.20;;
10586;SDS011;5341;47.606;7.576;2023-03-14T01:20:32;3.63;;;2.35;;
10586;SDS011;5341;47.606;7.576;2023-03-14T01:23:00;3.10;;;2.80;;
10586;SDS011;5341;47.606;7.576;2023-03-14T01:25:27;3.10;;;2.17;;
10586;SDS011;5341;47.606;7.576;2023-03-14T01:27:55;2.40;;;1.90;;
10586;SDS011;5341;47.606;7.576;2023-03-14T01:30:23;3.15;;;2.25;;
10586;SDS011;5341;47.606;7.576;2023-03-14T01:32:50;4.30;;;3.00;;
10586;SDS011;5341;47.606;7.576;2023-03-14T01:35:17;3.38;;;2.90;;
10586;SDS011;5341;47.606;7.576;2023-03-14T01:37:46;2.97;;;2.20;;
10586;SDS011;5341;47.606;7.576;2023-03-14T01:40:18;3.63;;;2.70;;
10586;SDS011;5341;47.606;7.576;2023-03-14T01:42:46;2.40;;;2.00;;
10586;SDS011;5341;47.606;7.576;2023-03-14T01:48:18;2.72;;;2.20;;
10586;SDS011;5341;47.606;7.576;2023-03-14T01:50:45;2.35;;;1.75;;
10586;SDS011;5341;47.606;7.576;2023-03-14T01:53:14;2.05;;;1.60;;
10586;SDS011;5341;47.606;7.576;2023-03-14T01:55:43;2.00;;;1.80;;
10586;SDS011;5341;47.606;7.576;2023-03-14T01:58:10;1.95;;;1.70;;
10586;SDS011;5341;47.606;7.576;2023-03-14T02:00:37;1.83;;;1.50;;
10586;SDS011;5341;47.606;7.576;2023-03-14T02:03:06;1.83;;;1.67;;
10586;SDS011;5341;47.606;7.576;2023-03-14T02:05:38;1.58;;;1.42;;
10586;SDS011;5341;47.606;7.576;2023-03-14T02:08:13;1.40;;;1.30;;
10586;SDS011;5341;47.606;7.576;2023-03-14T02:10:50;1.40;;;1.20;;
10586;SDS011;5341;47.606;7.576;2023-03-14T02:13:29;1.60;;;1.35;;
10586;SDS011;5341;47.606;7.576;2023-03-14T02:16:15;1.00;;;0.90;;
10586;SDS011;5341;47.606;7.576;2023-03-14T02:19:08;1.85;;;1.30;;
10586;SDS011;5341;47.606;7.576;2023-03-14T02:21:46;1.63;;;1.25;;
10586;SDS011;5341;47.606;7.576;2023-03-14T02:24:25;1.80;;;1.60;;
10586;SDS011;5341;47.606;7.576;2023-03-14T02:27:13;1.98;;;1.42;;
10586;SDS011;5341;47.606;7.576;2023-03-14T02:29:46;1.33;;;1.10;;
10586;SDS011;5341;47.606;7.576;2023-03-14T02:32:18;1.20;;;1.10;;
10586;SDS011;5341;47.606;7.576;2023-03-14T02:34:48;1.48;;;1.30;;
10586;SDS011;5341;47.606;7.576;2023-03-14T02:37:19;2.35;;;1.20;;
10586;SDS011;5341;47.606;7.576;2023-03-14T02:39:50;1.63;;;1.25;;
10586;SDS011;5341;47.606;7.576;2023-03-14T02:42:19;1.77;;;1.15;;
10586;SDS011;5341;47.606;7.576;2023-03-14T02:44:48;1.55;;;1.17;;
10586;SDS011;5341;47.606;7.576;2023-03-14T02:47:20;1.92;;;1.20;;
10586;SDS011;5341;47.606;7.576;2023-03-14T02:49:53;1.52;;;1.13;;
10586;SDS011;5341;47.606;7.576;2023-03-14T02:52:27;1.08;;;0.98;;
10586;SDS011;5341;47.606;7.576;2023-03-14T02:54:55;1.05;;;0.93;;
10586;SDS011;5341;47.606;7.576;2023-03-14T02:57:25;1.10;;;0.95;;
10586;SDS011;5341;47.606;7.576;2023-03-14T02:59:53;2.03;;;1.00;;
10586;SDS011;5341;47.606;7.576;2023-03-14T03:02:21;1.35;;;1.00;;
10586;SDS011;5341;47.606;7.576;2023-03-14T03:04:51;1.20;;;1.00;;
10586;SDS011;5341;47.606;7.576;2023-03-14T03:07:19;1.25;;;0.90;;
10586;SDS011;5341;47.606;7.576;2023-03-14T03:09:59;1.08;;;0.98;;
10586;SDS011;5341;47.606;7.576;2023-03-14T03:12:29;1.45;;;1.20;;
10586;SDS011;5341;47.606;7.576;2023-03-14T03:14:56;1.45;;;1.20;;
10586;SDS011;5341;47.606;7.576;2023-03-14T03:17:24;1.52;;;1.20;;
10586;SDS011;5341;47.606;7.576;2023-03-14T03:19:51;1.60;;;1.08;;
10586;SDS011;5341;47.606;7.576;2023-03-14T03:22:18;2.10;;;1.48;;
10586;SDS011;5341;47.606;7.576;2023-03-14T03:24:45;1.77;;;1.45;;
10586;SDS011;5341;47.606;7.576;2023-03-14T03:27:13;2.45;;;1.55;;
10586;SDS011;5341;47.606;7.576;2023-03-14T03:29:41;2.05;;;1.65;;
10586;SDS011;5341;47.606;7.576;2023-03-14T03:32:09;1.63;;;1.30;;
10586;SDS011;5341;47.606;7.576;2023-03-14T03:34:37;1.70;;;1.20;;
10586;SDS011;5341;47.606;7.576;2023-03-14T03:37:04;2.35;;;1.30;;
10586;SDS011;5341;47.606;7.576;2023-03-14T03:39:36;1.50;;;1.30;;
10586;SDS011;5341;47.606;7.576;2023-03-14T03:42:03;1.45;;;1.35;;
10586;SDS011;5341;47.606;7.576;2023-03-14T03:44:30;1.90;;;1.27;;
10586;SDS011;5341;47.606;7.576;2023-03-14T03:46:59;2.70;;;1.35;;
10586;SDS011;5341;47.606;7.576;2023-03-14T03:49:28;2.35;;;1.30;;
10586;SDS011;5341;47.606;7.576;2023-03-14T03:51:56;2.17;;;1.40;;
10586;SDS011;5341;47.606;7.576;2023-03-14T03:54:23;2.63;;;1.10;;
10586;SDS011;5341;47.606;7.576;2023-03-14T03:56:51;2.25;;;1.20;;
10586;SDS011;5341;47.606;7.576;2023-03-14T03:59:18;1.65;;;1.40;;
10586;SDS011;5341;47.606;7.576;2023-03-14T04:01:47;1.83;;;1.15;;
10586;SDS011;5341;47.606;7.576;2023-03-14T04:04:16;5.60;;;1.23;;
10586;SDS011;5341;47.606;7.576;2023-03-14T04:06:43;2.65;;;1.35;;
10586;SDS011;5341;47.606;7.576;2023-03-14T04:09:11;1.20;;;1.10;;
10586;SDS011;5341;47.606;7.576;2023-03-14T04:11:45;2.88;;;1.23;;
10586;SDS011;5341;47.606;7.576;2023-03-14T04:14:32;1.45;;;1.20;;
10586;SDS011;5341;47.606;7.576;2023-03-14T04:17:13;2.58;;;1.20;;
10586;SDS011;5341;47.606;7.576;2023-03-14T04:19:43;2.75;;;1.05;;
10586;SDS011;5341;47.606;7.576;2023-03-14T04:22:11;1.15;;;0.70;;
10586;SDS011;5341;47.606;7.576;2023-03-14T04:24:48;1.70;;;1.42;;
10586;SDS011;5341;47.606;7.576;2023-03-14T04:27:17;1.55;;;0.98;;
10586;SDS011;5341;47.606;7.576;2023-03-14T04:29:46;1.63;;;1.20;;
10586;SDS011;5341;47.606;7.576;2023-03-14T04:32:17;0.82;;;0.82;;
10586;SDS011;5341;47.606;7.576;2023-03-14T04:34:46;1.30;;;1.10;;
10586;SDS011;5341;47.606;7.576;2023-03-14T04:37:13;2.15;;;1.30;;
10586;SDS011;5341;47.606;7.576;2023-03-14T04:39:44;1.75;;;1.20;;
10586;SDS011;5341;47.606;7.576;2023-03-14T04:42:18;3.58;;;1.30;;
10586;SDS011;5341;47.606;7.576;2023-03-14T04:44:46;1.25;;;1.00;;
10586;SDS011;5341;47.606;7.576;2023-03-14T04:47:15;1.20;;;0.90;;
10586;SDS011;5341;47.606;7.576;2023-03-14T04:49:44;1.58;;;1.02;;
10586;SDS011;5341;47.606;7.576;2023-03-14T04:52:14;1.40;;;1.30;;
10586;SDS011;5341;47.606;7.576;2023-03-14T04:54:42;1.20;;;1.02;;
10586;SDS011;5341;47.606;7.576;2023-03-14T04:57:11;2.03;;;1.05;;
10586;SDS011;5341;47.606;7.576;2023-03-14T04:59:39;1.40;;;0.93;;
10586;SDS011;5341;47.606;7.576;2023-03-14T05:02:31;2.30;;;1.23;;
10586;SDS011;5341;47.606;7.576;2023-03-14T05:05:22;2.25;;;1.30;;
10586;SDS011;5341;47.606;7.576;2023-03-14T05:08:08;4.40;;;1.60;;
10586;SDS011;5341;47.606;7.576;2023-03-14T05:10:51;2.55;;;2.17;;
10586;SDS011;5341;47.606;7.576;2023-03-14T05:13:49;8.15;;;6.38;;
10586;SDS011;5341;47.606;7.576;2023-03-14T05:16:36;8.63;;;6.63;;
10586;SDS011;5341;47.606;7.576;2023-03-14T05:19:21;6.97;;;5.85;;
10586;SDS011;5341;47.606;7.576;2023-03-14T05:22:08;8.23;;;5.50;;
10586;SDS011;5341;47.606;7.576;2023-03-14T05:24:54;5.45;;;4.57;;
10586;SDS011;5341;47.606;7.576;2023-03-14T05:27:47;7.20;;;5.57;;
10586;SDS011;5341;47.606;7.576;2023-03-14T05:30:39;5.88;;;4.55;;
10586;SDS011;5341;47.606;7.576;2023-03-14T05:33:49;6.15;;;4.63;;
10586;SDS011;5341;47.606;7.576;2023-03-14T05:36:49;5.90;;;4.55;;
10586;SDS011;5341;47.606;7.576;2023-03-14T05:40:23;4.38;;;3.40;;
10586;SDS011;5341;47.606;7.576;2023-03-14T05:43:04;4.28;;;3.33;;
10586;SDS011;5341;47.606;7.576;2023-03-14T05:46:06;6.32;;;4.82;;
10586;SDS011;5341;47.606;7.576;2023-03-14T05:48:52;4.15;;;3.33;;
10586;SDS011;5341;47.606;7.576;2023-03-14T05:51:38;4.60;;;3.53;;
10586;SDS011;5341;47.606;7.576;2023-03-14T05:54:17;4.95;;;3.70;;
10586;SDS011;5341;47.606;7.576;2023-03-14T05:56:55;4.60;;;3.33;;
10586;SDS011;5341;47.606;7.576;2023-03-14T05:59:52;4.40;;;3.55;;
10586;SDS011;5341;47.606;7.576;2023-03-14T06:02:25;5.00;;;3.15;;
10586;SDS011;5341;47.606;7.576;2023-03-14T06:05:01;3.90;;;3.20;;
10586;SDS011;5341;47.606;7.576;2023-03-14T06:07:29;3.80;;;2.83;;
10586;SDS011;5341;47.606;7.576;2023-03-14T06:09:56;4.30;;;3.13;;
10586;SDS011;5341;47.606;7.576;2023-03-14T06:12:25;3.60;;;2.67;;
10586;SDS011;5341;47.606;7.576;2023-03-14T06:14:55;3.70;;;2.53;;
10586;SDS011;5341;47.606;7.576;2023-03-14T06:17:22;6.65;;;2.95;;
10586;SDS011;5341;47.606;7.576;2023-03-14T06:20:00;5.57;;;4.25;;
10586;SDS011;5341;47.606;7.576;2023-03-14T06:22:29;6.20;;;5.28;;
10586;SDS011;5341;47.606;7.576;2023-03-14T06:24:56;4.78;;;3.97;;
10586;SDS011;5341;47.606;7.576;2023-03-14T06:27:26;6.00;;;4.22;;
10586;SDS011;5341;47.606;7.576;2023-03-14T06:29:55;4.70;;;3.90;;
10586;SDS011;5341;47.606;7.576;2023-03-14T06:32:23;6.07;;;4.63;;
10586;SDS011;5341;47.606;7.576;2023-03-14T06:34:53;5.28;;;3.95;;
10586;SDS011;5341;47.606;7.576;2023-03-14T06:37:22;5.05;;;3.75;;
10586;SDS011;5341;47.606;7.576;2023-03-14T06:39:51;4.75;;;3.45;;
10586;SDS011;5341;47.606;7.576;2023-03-14T06:42:35;3.53;;;2.90;;
10586;SDS011;5341;47.606;7.576;2023-03-14T06:45:03;3.08;;;2.60;;
10586;SDS011;5341;47.606;7.576;2023-03-14T06:47:31;4.43;;;3.17;;
10586;SDS011;5341;47.606;7.576;2023-03-14T06:49:58;5.15;;;3.80;;
10586;SDS011;5341;47.606;7.576;2023-03-14T06:52:25;3.28;;;2.80;;
10586;SDS011;5341;47.606;7.576;2023-03-14T06:54:53;3.20;;;2.67;;
10586;SDS011;5341;47.606;7.576;2023-03-14T06:57:22;3.38;;;2.50;;
10586;SDS011;5341;47.606;7.576;2023-03-14T06:59:51;3.58;;;2.50;;
10586;SDS011;5341;47.606;7.576;2023-03-14T07:02:25;3.67;;;2.50;;
10586;SDS011;5341;47.606;7.576;2023-03-14T07:04:59;4.45;;;2.38;;
10586;SDS011;5341;47.606;7.576;2023-03-14T07:07:31;2.72;;;2.00;;
10586;SDS011;5341;47.606;7.576;2023-03-14T07:10:02;2.25;;;1.90;;
10586;SDS011;5341;47.606;7.576;2023-03-14T07:12:35;3.80;;;2.90;;
10586;SDS011;5341;47.606;7.576;2023-03-14T07:15:05;3.22;;;2.40;;
10586;SDS011;5341;47.606;7.576;2023-03-14T07:17:34;2.67;;;2.05;;
10586;SDS011;5341;47.606;7.576;2023-03-14T07:20:02;2.30;;;1.80;;
10586;SDS011;5341;47.606;7.576;2023-03-14T07:22:36;3.72;;;1.75;;
10586;SDS011;5341;47.606;7.576;2023-03-14T07:25:03;1.50;;;1.10;;
10586;SDS011;5341;47.606;7.576;2023-03-14T07:27:32;1.73;;;1.40;;
10586;SDS011;5341;47.606;7.576;2023-03-14T07:29:59;1.67;;;1.40;;
10586;SDS011;5341;47.606;7.576;2023-03-14T07:32:28;1.08;;;1.00;;
10586;SDS011;5341;47.606;7.576;2023-03-14T07:34:56;2.72;;;1.10;;
10586;SDS011;5341;47.606;7.576;2023-03-14T07:37:23;1.98;;;1.20;;
10586;SDS011;5341;47.606;7.576;2023-03-14T07:39:50;1.13;;;1.02;;
10586;SDS011;5341;47.606;7.576;2023-03-14T07:42:21;0.90;;;0.90;;
10586;SDS011;5341;47.606;7.576;2023-03-14T07:45:08;0.73;;;0.73;;
10586;SDS011;5341;47.606;7.576;2023-03-14T07:47:37;1.17;;;1.05;;
10586;SDS011;5341;47.606;7.576;2023-03-14T07:50:05;0.73;;;0.70;;
10586;SDS011;5341;47.606;7.576;2023-03-14T07:52:33;1.13;;;0.90;;
10586;SDS011;5341;47.606;7.576;2023-03-14T07:55:00;1.05;;;0.95;;
10586;SDS011;5341;47.606;7.576;2023-03-14T07:57:27;0.80;;;0.77;;
10586;SDS011;5341;47.606;7.576;2023-03-14T07:59:54;0.88;;;0.80;;
10586;SDS011;5341;47.606;7.576;2023-03-14T08:02:22;1.77;;;0.90;;
10586;SDS011;5341;47.606;7.576;2023-03-14T08:04:50;1.05;;;0.95;;
10586;SDS011;5341;47.606;7.576;2023-03-14T08:07:18;1.00;;;0.90;;
10586;SDS011;5341;47.606;7.576;2023-03-14T08:09:45;0.95;;;0.90;;
10586;SDS011;5341;47.606;7.576;2023-03-14T08:12:12;1.20;;;1.10;;
10586;SDS011;5341;47.606;7.576;2023-03-14T08:14:41;1.52;;;1.38;;
10586;SDS011;5341;47.606;7.576;2023-03-14T08:17:08;1.40;;;1.05;;
10586;SDS011;5341;47.606;7.576;2023-03-14T08:19:38;1.20;;;1.00;;
10586;SDS011;5341;47.606;7.576;2023-03-14T08:22:08;1.00;;;0.95;;
10586;SDS011;5341;47.606;7.576;2023-03-14T08:24:36;1.02;;;0.93;;
10586;SDS011;5341;47.606;7.576;2023-03-14T08:27:03;1.30;;;0.98;;
10586;SDS011;5341;47.606;7.576;2023-03-14T08:29:30;1.05;;;0.90;;
10586;SDS011;5341;47.606;7.576;2023-03-14T08:31:58;1.15;;;1.02;;
10586;SDS011;5341;47.606;7.576;2023-03-14T08:34:25;1.10;;;1.00;;
10586;SDS011;5341;47.606;7.576;2023-03-14T08:36:52;1.10;;;0.98;;
10586;SDS011;5341;47.606;7.576;2023-03-14T08:39:23;0.80;;;0.80;;
10586;SDS011;5341;47.606;7.576;2023-03-14T08:41:50;1.00;;;0.90;;
10586;SDS011;5341;47.606;7.576;2023-03-14T08:44:18;1.40;;;1.15;;
10586;SDS011;5341;47.606;7.576;2023-03-14T08:46:45;1.75;;;0.90;;
10586;SDS011;5341;47.606;7.576;2023-03-14T08:49:13;0.80;;;0.80;;
10586;SDS011;5341;47.606;7.576;2023-03-14T08:51:40;1.67;;;0.77;;
10586;SDS011;5341;47.606;7.576;2023-03-14T08:54:09;0.75;;;0.75;;
10586;SDS011;5341;47.606;7.576;2023-03-14T08:56:39;0.63;;;0.63;;
10586;SDS011;5341;47.606;7.576;2023-03-14T08:59:06;0.70;;;0.70;;
10586;SDS011;5341;47.606;7.576;2023-03-14T09:01:36;0.85;;;0.50;;
10586;SDS011;5341;47.606;7.576;2023-03-14T09:04:03;0.50;;;0.50;;
10586;SDS011;5341;47.606;7.576;2023-03-14T09:06:32;0.60;;;0.60;;
10586;SDS011;5341;47.606;7.576;2023-03-14T09:08:59;0.50;;;0.50;;
10586;SDS011;5341;47.606;7.576;2023-03-14T09:11:26;1.05;;;0.95;;
10586;SDS011;5341;47.606;7.576;2023-03-14T09:13:55;2.17;;;0.63;;
10586;SDS011;5341;47.606;7.576;2023-03-14T09:16:22;0.40;;;0.40;;
10586;SDS011;5341;47.606;7.576;2023-03-14T09:18:50;0.50;;;0.50;;
10586;SDS011;5341;47.606;7.576;2023-03-14T09:21:19;0.70;;;0.70;;
10586;SDS011;5341;47.606;7.576;2023-03-14T09:23:47;0.57;;;0.57;;
10586;SDS011;5341;47.606;7.576;2023-03-14T09:26:14;0.50;;;0.50;;
10586;SDS011;5341;47.606;7.576;2023-03-14T09:28:41;0.63;;;0.60;;
10586;SDS011;5341;47.606;7.576;2023-03-14T09:31:10;0.68;;;0.68;;
10586;SDS011;5341;47.606;7.576;2023-03-14T09:33:38;0.65;;;0.65;;
10586;SDS011;5341;47.606;7.576;2023-03-14T09:36:06;2.15;;;0.60;;
10586;SDS011;5341;47.606;7.576;2023-03-14T09:38:34;1.95;;;0.80;;
10586;SDS011;5341;47.606;7.576;2023-03-14T09:41:02;2.05;;;0.70;;
10586;SDS011;5341;47.606;7.576;2023-03-14T09:43:41;1.65;;;1.40;;
10586;SDS011;5341;47.606;7.576;2023-03-14T09:46:12;3.33;;;2.78;;
10586;SDS011;5341;47.606;7.576;2023-03-14T09:48:40;3.30;;;2.50;;
10586;SDS011;5341;47.606;7.576;2023-03-14T09:51:11;3.78;;;3.13;;
10586;SDS011;5341;47.606;7.576;2023-03-14T09:53:41;2.00;;;1.80;;
10586;SDS011;5341;47.606;7.576;2023-03-14T09:56:12;5.63;;;4.53;;
10586;SDS011;5341;47.606;7.576;2023-03-14T09:58:44;3.17;;;2.42;;
10586;SDS011;5341;47.606;7.576;2023-03-14T10:01:25;3.85;;;2.30;;
10586;SDS011;5341;47.606;7.576;2023-03-14T10:03:58;3.55;;;2.88;;
10586;SDS011;5341;47.606;7.576;2023-03-14T10:06:28;5.05;;;3.33;;
10586;SDS011;5341;47.606;7.576;2023-03-14T10:08:57;2.25;;;1.80;;
10586;SDS011;5341;47.606;7.576;2023-03-14T10:11:25;3.28;;;2.30;;
10586;SDS011;5341;47.606;7.576;2023-03-14T10:14:03;3.20;;;2.50;;
10586;SDS011;5341;47.606;7.576;2023-03-14T10:16:34;2.80;;;2.40;;
10586;SDS011;5341;47.606;7.576;2023-03-14T10:19:04;2.72;;;2.38;;
10586;SDS011;5341;47.606;7.576;2023-03-14T10:21:37;2.03;;;1.67;;
10586;SDS011;5341;47.606;7.576;2023-03-14T10:24:09;2.50;;;1.98;;
10586;SDS011;5341;47.606;7.576;2023-03-14T10:26:44;2.20;;;1.83;;
10586;SDS011;5341;47.606;7.576;2023-03-14T10:29:15;3.67;;;2.00;;
10586;SDS011;5341;47.606;7.576;2023-03-14T10:31:48;2.40;;;1.80;;
10586;SDS011;5341;47.606;7.576;2023-03-14T10:34:21;2.42;;;2.20;;
10586;SDS011;5341;47.606;7.576;2023-03-14T10:36:55;3.63;;;2.17;;
10586;SDS011;5341;47.606;7.576;2023-03-14T10:39:29;2.33;;;1.63;;
10586;SDS011;5341;47.606;7.576;2023-03-14T10:42:05;2.72;;;2.10;;
10586;SDS011;5341;47.606;7.576;2023-03-14T10:44:39;2.17;;;1.80;;
10586;SDS011;5341;47.606;7.576;2023-03-14T10:47:15;2.22;;;1.10;;
10586;SDS011;5341;47.606;7.576;2023-03-14T10:49:46;2.33;;;1.40;;
10586;SDS011;5341;47.606;7.576;2023-03-14T10:52:15;2.80;;;1.50;;
10586;SDS011;5341;47.606;7.576;2023-03-14T10:54:48;2.15;;;1.60;;
10586;SDS011;5341;47.606;7.576;2023-03-14T10:57:22;1.55;;;1.20;;
10586;SDS011;5341;47.606;7.576;2023-03-14T10:59:49;1.15;;;1.00;;
10586;SDS011;5341;47.606;7.576;2023-03-14T11:02:28;2.33;;;1.40;;
10586;SDS011;5341;47.606;7.576;2023-03-14T11:05:10;2.00;;;1.50;;
10586;SDS011;5341;47.606;7.576;2023-03-14T11:07:45;2.00;;;1.77;;
10586;SDS011;5341;47.606;7.576;2023-03-14T11:10:14;1.92;;;1.42;;
10586;SDS011;5341;47.606;7.576;2023-03-14T11:12:54;2.45;;;1.30;;
10586;SDS011;5341;47.606;7.576;2023-03-14T11:15:33;1.33;;;1.00;;
10586;SDS011;5341;47.606;7.576;2023-03-14T11:18:16;1.45;;;1.27;;
10586;SDS011;5341;47.606;7.576;2023-03-14T11:20:55;1.40;;;1.10;;
10586;SDS011;5341;47.606;7.576;2023-03-14T11:23:27;2.38;;;1.40;;
10586;SDS011;5341;47.606;7.576;2023-03-14T11:26:03;2.60;;;1.10;;
10586;SDS011;5341;47.606;7.576;2023-03-14T11:28:40;1.60;;;1.30;;
10586;SDS011;5341;47.606;7.576;2023-03-14T11:31:15;1.55;;;1.30;;
10586;SDS011;5341;47.606;7.576;2023-03-14T11:33:50;2.67;;;1.25;;
10586;SDS011;5341;47.606;7.576;2023-03-14T11:36:24;2.92;;;1.50;;
10586;SDS011;5341;47.606;7.576;2023-03-14T11:38:56;1.52;;;1.20;;
10586;SDS011;5341;47.606;7.576;2023-03-14T11:41:26;2.08;;;1.30;;
10586;SDS011;5341;47.606;7.576;2023-03-14T11:43:59;2.60;;;1.30;;
10586;SDS011;5341;47.606;7.576;2023-03-14T11:46:31;3.67;;;1.50;;
10586;SDS011;5341;47.606;7.576;2023-03-14T11:49:05;2.90;;;1.40;;
10586;SDS011;5341;47.606;7.576;2023-03-14T11:51:41;3.78;;;1.40;;
10586;SDS011;5341;47.606;7.576;2023-03-14T11:54:14;3.13;;;1.40;;
10586;SDS011;5341;47.606;7.576;2023-03-14T11:56:46;2.88;;;1.33;;
10586;SDS011;5341;47.606;7.576;2023-03-14T11:59:19;4.32;;;1.48;;
10586;SDS011;5341;47.606;7.576;2023-03-14T12:01:52;2.25;;;1.40;;
10586;SDS011;5341;47.606;7.576;2023-03-14T12:04:31;2.95;;;1.33;;
10586;SDS011;5341;47.606;7.576;2023-03-14T12:07:12;1.83;;;1.27;;
10586;SDS011;5341;47.606;7.576;2023-03-14T12:09:45;2.58;;;1.58;;
10586;SDS011;5341;47.606;7.576;2023-03-14T12:12:16;4.03;;;1.63;;
10586;SDS011;5341;47.606;7.576;2023-03-14T12:14:52;2.72;;;1.40;;
10586;SDS011;5341;47.606;7.576;2023-03-14T12:17:22;3.63;;;1.83;;
10586;SDS011;5341;47.606;7.576;2023-03-14T12:20:03;2.45;;;1.65;;
10586;SDS011;5341;47.606;7.576;2023-03-14T12:22:42;3.08;;;1.67;;
10586;SDS011;5341;47.606;7.576;2023-03-14T12:25:15;4.90;;;1.80;;
10586;SDS011;5341;47.606;7.576;2023-03-14T12:27:47;2.95;;;1.63;;
10586;SDS011;5341;47.606;7.576;2023-03-14T12:30:36;4.65;;;1.80;;
10586;SDS011;5341;47.606;7.576;2023-03-14T12:35:58;2.83;;;1.70;;
10586;SDS011;5341;47.606;7.576;2023-03-14T12:41:28;3.08;;;1.73;;
10586;SDS011;5341;47.606;7.576;2023-03-14T12:47:13;3.50;;;1.65;;
10586;SDS011;5341;47.606;7.576;2023-03-14T12:50:16;4.70;;;2.35;;
10586;SDS011;5341;47.606;7.576;2023-03-14T12:55:45;4.82;;;2.40;;
10586;SDS011;5341;47.606;7.576;2023-03-14T12:58:17;6.72;;;3.17;;
10586;SDS011;5341;47.606;7.576;2023-03-14T13:00:55;4.32;;;2.30;;
10586;SDS011;5341;47.606;7.576;2023-03-14T13:03:26;6.47;;;2.42;;
10586;SDS011;5341;47.606;7.576;2023-03-14T13:06:03;3.80;;;2.05;;
10586;SDS011;5341;47.606;7.576;2023-03-14T13:08:35;2.83;;;1.60;;
10586;SDS011;5341;47.606;7.576;2023-03-14T13:11:05;3.13;;;1.45;;
10586;SDS011;5341;47.606;7.576;2023-03-14T13:13:36;4.22;;;1.75;;
10586;SDS011;5341;47.606;7.576;2023-03-14T13:16:09;2.72;;;1.80;;
10586;SDS011;5341;47.606;7.576;2023-03-14T13:18:42;3.15;;;1.55;;
10586;SDS011;5341;47.606;7.576;2023-03-14T13:21:11;3.92;;;1.60;;
10586;SDS011;5341;47.606;7.576;2023-03-14T13:23:53;3.83;;;1.60;;
10586;SDS011;5341;47.606;7.576;2023-03-14T13:26:26;4.20;;;1.77;;
10586;SDS011;5341;47.606;7.576;2023-03-14T13:29:08;4.88;;;2.15;;
10586;SDS011;5341;47.606;7.576;2023-03-14T13:31:36;4.07;;;1.90;;
10586;SDS011;5341;47.606;7.576;2023-03-14T13:34:06;4.00;;;2.13;;
10586;SDS011;5341;47.606;7.576;2023-03-14T13:36:36;3.45;;;2.22;;
10586;SDS011;5341;47.606;7.576;2023-03-14T13:39:04;4.28;;;1.98;;
10586;SDS011;5341;47.606;7.576;2023-03-14T13:41:39;3.42;;;1.80;;
10586;SDS011;5341;47.606;7.576;2023-03-14T13:44:07;3.30;;;1.92;;
10586;SDS011;5341;47.606;7.576;2023-03-14T13:46:35;6.20;;;2.33;;
10586;SDS011;5341;47.606;7.576;2023-03-14T13:49:04;5.68;;;2.30;;
10586;SDS011;5341;47.606;7.576;2023-03-14T13:51:33;3.72;;;2.40;;
10586;SDS011;5341;47.606;7.576;2023-03-14T13:54:00;4.25;;;1.85;;
10586;SDS011;5341;47.606;7.576;2023-03-14T13:56:29;4.25;;;1.90;;
10586;SDS011;5341;47.606;7.576;2023-03-14T13:59:00;3.13;;;1.58;;
10586;SDS011;5341;47.606;7.576;2023-03-14T14:01:27;3.25;;;1.60;;
10586;SDS011;5341;47.606;7.576;2023-03-14T14:03:58;3.58;;;1.50;;
10586;SDS011;5341;47.606;7.576;2023-03-14T14:06:34;2.70;;;1.50;;
10586;SDS011;5341;47.606;7.576;2023-03-14T14:09:04;3.65;;;1.35;;
10586;SDS011;5341;47.606;7.576;2023-03-14T14:11:41;4.20;;;1.50;;
10586;SDS011;5341;47.606;7.576;2023-03-14T14:14:12;2.28;;;1.42;;
10586;SDS011;5341;47.606;7.576;2023-03-14T14:16:44;3.70;;;1.40;;
10586;SDS011;5341;47.606;7.576;2023-03-14T14:19:13;3.63;;;1.70;;
10586;SDS011;5341;47.606;7.576;2023-03-14T14:21:43;2.80;;;1.35;;
10586;SDS011;5341;47.606;7.576;2023-03-14T14:24:10;3.47;;;1.33;;
10586;SDS011;5341;47.606;7.576;2023-03-14T14:26:40;3.92;;;1.80;;
10586;SDS011;5341;47.606;7.576;2023-03-14T14:29:19;5.00;;;2.00;;
10586;SDS011;5341;47.606;7.576;2023-03-14T14:31:59;4.15;;;1.48;;
10586;SDS011;5341;47.606;7.576;2023-03-14T14:34:28;2.78;;;1.40;;
10586;SDS011;5341;47.606;7.576;2023-03-14T14:36:55;1.52;;;1.23;;
10586;SDS011;5341;47.606;7.576;2023-03-14T14:39:24;3.78;;;1.38;;
10586;SDS011;5341;47.606;7.576;2023-03-14T14:41:54;3.17;;;1.40;;
10586;SDS011;5341;47.606;7.576;2023-03-14T14:44:25;3.13;;;1.63;;
10586;SDS011;5341;47.606;7.576;2023-03-14T14:47:12;2.80;;;1.38;;
10586;SDS011;5341;47.606;7.576;2023-03-14T14:49:40;4.57;;;1.80;;
10586;SDS011;5341;47.606;7.576;2023-03-14T14:52:09;2.15;;;1.40;;
10586;SDS011;5341;47.606;7.576;2023-03-14T14:54:42;3.63;;;1.77;;
10586;SDS011;5341;47.606;7.576;2023-03-14T14:57:15;5.95;;;2.60;;
10586;SDS011;5341;47.606;7.576;2023-03-14T14:59:47;3.78;;;2.00;;
10586;SDS011;5341;47.606;7.576;2023-03-14T15:02:23;3.40;;;1.98;;
10586;SDS011;5341;47.606;7.576;2023-03-14T15:04:58;3.03;;;1.77;;
10586;SDS011;5341;47.606;7.576;2023-03-14T15:07:26;1.67;;;1.30;;
10586;SDS011;5341;47.606;7.576;2023-03-14T15:09:55;3.17;;;1.23;;
10586;SDS011;5341;47.606;7.576;2023-03-14T15:12:22;3.95;;;1.45;;
10586;SDS011;5341;47.606;7.576;2023-03-14T15:14:51;4.35;;;1.10;;
10586;SDS011;5341;47.606;7.576;2023-03-14T15:17:22;2.78;;;1.48;;
10586;SDS011;5341;47.606;7.576;2023-03-14T15:19:49;2.15;;;1.27;;
10586;SDS011;5341;47.606;7.576;2023-03-14T15:22:17;2.08;;;1.10;;
10586;SDS011;5341;47.606;7.576;2023-03-14T15:24:45;2.00;;;1.38;;
10586;SDS011;5341;47.606;7.576;2023-03-14T15:27:13;2.15;;;1.20;;
10586;SDS011;5341;47.606;7.576;2023-03-14T15:29:44;3.40;;;1.60;;
10586;SDS011;5341;47.606;7.576;2023-03-14T15:32:14;4.13;;;1.40;;
10586;SDS011;5341;47.606;7.576;2023-03-14T15:34:47;2.53;;;1.23;;
10586;SDS011;5341;47.606;7.576;2023-03-14T15:37:15;1.55;;;0.98;;
10586;SDS011;5341;47.606;7.576;2023-03-14T15:39:43;1.70;;;0.93;;
10586;SDS011;5341;47.606;7.576;2023-03-14T15:42:12;3.65;;;1.23;;
10586;SDS011;5341;47.606;7.576;2023-03-14T15:44:39;2.28;;;1.23;;